sensor_id;sensor_type;location;lat;lon;timestamp;pressure;altitude;pressure_sealevel;temperature;humidity
51287;BME280;37364;46.974;18.916;2023-06-14T00:01:28;153521.69;;;12.59;100.00
51287;BME280;37364;46.974;18.916;2023-06-14T00:04:03;153511.34;;;12.55;100.00
51287;BME280;37364;46.974;18.916;2023-06-14T00:06:39;153510.00;;;12.54;100.00
51287;BME280;37364;46.974;18.916;2023-06-14T00:09:16;153503.53;;;12.52;100.00
51287;BME280;37364;46.974;18.916;2023-06-14T00:11:51;153463.34;;;12.36;100.00
51287;BME280;37364;46.974;18.916;2023-06-14T00:14:27;153450.38;;;12.31;100.00
51287;BME280;37364;46.974;18.916;2023-06-14T00:17:01;153447.81;;;12.30;100.00
51287;BME280;37364;46.974;18.916;2023-06-14T00:19:35;153437.44;;;12.25;100.00
51287;BME280;37364;46.974;18.916;2023-06-14T00:22:08;153408.91;;;12.14;100.00
51287;BME280;37364;46.974;18.916;2023-06-14T00:24:41;153398.53;;;12.10;100.00
51287;BME280;37364;46.974;18.916;2023-06-14T00:27:12;153375.19;;;12.01;100.00
51287;BME280;37364;46.974;18.916;2023-06-14T00:29:47;153380.38;;;12.03;100.00
51287;BME280;37364;46.974;18.916;2023-06-14T00:32:21;153377.81;;;12.02;100.00
51287;BME280;37364;46.974;18.916;2023-06-14T00:34:56;153379.09;;;12.02;100.00
51287;BME280;37364;46.974;18.916;2023-06-14T00:37:29;153307.78;;;11.74;100.00
51287;BME280;37364;46.974;18.916;2023-06-14T00:40:04;153310.38;;;11.75;100.00
51287;BME280;37364;46.974;18.916;2023-06-14T00:42:35;153319.44;;;11.79;100.00
51287;BME280;37364;46.974;18.916;2023-06-14T00:45:19;153342.78;;;11.88;100.00
51287;BME280;37364;46.974;18.916;2023-06-14T00:47:52;153329.81;;;11.83;100.00
51287;BME280;37364;46.974;18.916;2023-06-14T00:50:24;153335.00;;;11.85;100.00
51287;BME280;37364;46.974;18.916;2023-06-14T00:52:56;153342.78;;;11.88;100.00
51287;BME280;37364;46.974;18.916;2023-06-14T00:55:28;153348.00;;;11.90;100.00
51287;BME280;37364;46.974;18.916;2023-06-14T00:58:00;153344.06;;;11.88;100.00
51287;BME280;37364;46.974;18.916;2023-06-14T01:00:36;153350.56;;;11.91;100.00
51287;BME280;37364;46.974;18.916;2023-06-14T01:03:09;153336.28;;;11.85;100.00
51287;BME280;37364;46.974;18.916;2023-06-14T01:05:41;153329.81;;;11.83;100.00
51287;BME280;37364;46.974;18.916;2023-06-14T01:08:26;153336.28;;;11.85;100.00
51287;BME280;37364;46.974;18.916;2023-06-14T01:11:10;153337.59;;;11.86;100.00
51287;BME280;37364;46.974;18.916;2023-06-14T01:13:46;153329.81;;;11.83;100.00
51287;BME280;37364;46.974;18.916;2023-06-14T01:16:24;153331.09;;;11.83;100.00
51287;BME280;37364;46.974;18.916;2023-06-14T01:18:57;153303.91;;;11.73;100.00
51287;BME280;37364;46.974;18.916;2023-06-14T01:21:33;153294.81;;;11.69;100.00
51287;BME280;37364;46.974;18.916;2023-06-14T01:24:11;153292.22;;;11.68;100.00
51287;BME280;37364;46.974;18.916;2023-06-14T01:26:45;153268.91;;;11.59;100.00
51287;BME280;37364;46.974;18.916;2023-06-14T01:29:18;153284.47;;;11.65;100.00
51287;BME280;37364;46.974;18.916;2023-06-14T01:31:50;153320.72;;;11.79;100.00
51287;BME280;37364;46.974;18.916;2023-06-14T01:34:21;153296.09;;;11.70;100.00
51287;BME280;37364;46.974;18.916;2023-06-14T01:36:54;153307.78;;;11.74;100.00
51287;BME280;37364;46.974;18.916;2023-06-14T01:39:33;153292.22;;;11.68;100.00
51287;BME280;37364;46.974;18.916;2023-06-14T01:42:06;153279.28;;;11.63;100.00
51287;BME280;37364;46.974;18.916;2023-06-14T01:44:42;153265.03;;;11.57;100.00
51287;BME280;37364;46.974;18.916;2023-06-14T01:47:15;153252.03;;;11.52;100.00
51287;BME280;37364;46.974;18.916;2023-06-14T01:49:48;153258.56;;;11.55;100.00
51287;BME280;37364;46.974;18.916;2023-06-14T01:52:20;153233.94;;;11.45;100.00
51287;BME280;37364;46.974;18.916;2023-06-14T01:54:57;153232.63;;;11.44;100.00
51287;BME280;37364;46.974;18.916;2023-06-14T01:57:30;153195.06;;;11.30;100.00
51287;BME280;37364;46.974;18.916;2023-06-14T02:00:00;153200.25;;;11.32;100.00
51287;BME280;37364;46.974;18.916;2023-06-14T02:02:38;153175.63;;;11.22;100.00
51287;BME280;37364;46.974;18.916;2023-06-14T02:05:11;153165.28;;;11.18;100.00
51287;BME280;37364;46.974;18.916;2023-06-14T02:07:44;153131.59;;;11.04;100.00
51287;BME280;37364;46.974;18.916;2023-06-14T02:10:20;153148.41;;;11.11;100.00
51287;BME280;37364;46.974;18.916;2023-06-14T02:12:52;153121.25;;;11.00;100.00
51287;BME280;37364;46.974;18.916;2023-06-14T02:15:24;153134.22;;;11.05;100.00
51287;BME280;37364;46.974;18.916;2023-06-14T02:18:04;153106.97;;;10.95;100.00
51287;BME280;37364;46.974;18.916;2023-06-14T02:20:35;153090.16;;;10.88;100.00
51287;BME280;37364;46.974;18.916;2023-06-14T02:23:09;153122.53;;;11.01;100.00
51287;BME280;37364;46.974;18.916;2023-06-14T02:25:42;153119.97;;;11.00;100.00
51287;BME280;37364;46.974;18.916;2023-06-14T02:28:13;153119.97;;;11.00;100.00
51287;BME280;37364;46.974;18.916;2023-06-14T02:30:43;153083.66;;;10.85;100.00
51287;BME280;37364;46.974;18.916;2023-06-14T02:33:14;153106.97;;;10.95;100.00
51287;BME280;37364;46.974;18.916;2023-06-14T02:35:47;153127.69;;;11.03;100.00
51287;BME280;37364;46.974;18.916;2023-06-14T02:38:17;153105.69;;;10.94;100.00
51287;BME280;37364;46.974;18.916;2023-06-14T02:40:50;153094.00;;;10.89;100.00
51287;BME280;37364;46.974;18.916;2023-06-14T02:43:21;153072.03;;;10.81;100.00
51287;BME280;37364;46.974;18.916;2023-06-14T02:45:56;153085.00;;;10.86;100.00
51287;BME280;37364;46.974;18.916;2023-06-14T02:48:27;153065.56;;;10.78;100.00
51287;BME280;37364;46.974;18.916;2023-06-14T02:50:58;153086.28;;;10.86;100.00
51287;BME280;37364;46.974;18.916;2023-06-14T02:53:31;153085.00;;;10.86;100.00
51287;BME280;37364;46.974;18.916;2023-06-14T02:56:11;153095.34;;;10.90;100.00
51287;BME280;37364;46.974;18.916;2023-06-14T02:58:47;153088.84;;;10.87;100.00
51287;BME280;37364;46.974;18.916;2023-06-14T03:01:19;153091.44;;;10.88;100.00
51287;BME280;37364;46.974;18.916;2023-06-14T03:03:55;153105.69;;;10.94;100.00
51287;BME280;37364;46.974;18.916;2023-06-14T03:06:27;153096.63;;;10.91;100.00
51287;BME280;37364;46.974;18.916;2023-06-14T03:09:04;153092.72;;;10.89;100.00
51287;BME280;37364;46.974;18.916;2023-06-14T03:11:41;153101.81;;;10.93;100.00
51287;BME280;37364;46.974;18.916;2023-06-14T03:14:13;153096.63;;;10.91;100.00
51287;BME280;37364;46.974;18.916;2023-06-14T03:16:51;153100.53;;;10.92;100.00
51287;BME280;37364;46.974;18.916;2023-06-14T03:19:24;153121.25;;;11.00;100.00
51287;BME280;37364;46.974;18.916;2023-06-14T03:22:04;153128.97;;;11.03;100.00
51287;BME280;37364;46.974;18.916;2023-06-14T03:24:38;153134.22;;;11.05;100.00
51287;BME280;37364;46.974;18.916;2023-06-14T03:27:17;153130.31;;;11.04;100.00
51287;BME280;37364;46.974;18.916;2023-06-14T03:29:51;153121.25;;;11.00;100.00
51287;BME280;37364;46.974;18.916;2023-06-14T03:32:22;153127.69;;;11.03;100.00
51287;BME280;37364;46.974;18.916;2023-06-14T03:34:53;153123.81;;;11.01;100.00
51287;BME280;37364;46.974;18.916;2023-06-14T03:37:25;153139.38;;;11.07;100.00
51287;BME280;37364;46.974;18.916;2023-06-14T03:39:58;153175.63;;;11.22;100.00
51287;BME280;37364;46.974;18.916;2023-06-14T03:42:36;153189.88;;;11.27;100.00
51287;BME280;37364;46.974;18.916;2023-06-14T03:45:08;153197.63;;;11.31;100.00
51287;BME280;37364;46.974;18.916;2023-06-14T03:47:38;153205.44;;;11.34;100.00
51287;BME280;37364;46.974;18.916;2023-06-14T03:50:10;153210.59;;;11.36;100.00
51287;BME280;37364;46.974;18.916;2023-06-14T03:52:44;153233.94;;;11.45;100.00
51287;BME280;37364;46.974;18.916;2023-06-14T03:55:21;153265.03;;;11.57;100.00
51287;BME280;37364;46.974;18.916;2023-06-14T03:58:00;153284.47;;;11.65;100.00
51287;BME280;37364;46.974;18.916;2023-06-14T04:00:34;153298.72;;;11.71;100.00
51287;BME280;37364;46.974;18.916;2023-06-14T04:03:05;153316.81;;;11.78;100.00
51287;BME280;37364;46.974;18.916;2023-06-14T04:05:37;153351.84;;;11.92;100.00
51287;BME280;37364;46.974;18.916;2023-06-14T04:08:12;153397.25;;;12.10;100.00
51287;BME280;37364;46.974;18.916;2023-06-14T04:10:50;153408.91;;;12.14;100.00
51287;BME280;37364;46.974;18.916;2023-06-14T04:13:22;153465.97;;;12.37;100.00
51287;BME280;37364;46.974;18.916;2023-06-14T04:15:54;153481.50;;;12.43;100.00
51287;BME280;37364;46.974;18.916;2023-06-14T04:18:33;153539.81;;;12.66;100.00
51287;BME280;37364;46.974;18.916;2023-06-14T04:21:08;153595.63;;;12.88;100.00
51287;BME280;37364;46.974;18.916;2023-06-14T04:23:49;153650.09;;;13.10;100.00
51287;BME280;37364;46.974;18.916;2023-06-14T04:26:23;153704.63;;;13.31;100.00
51287;BME280;37364;46.974;18.916;2023-06-14T04:29:00;153755.19;;;13.51;100.00
51287;BME280;37364;46.974;18.916;2023-06-14T04:31:42;153794.13;;;13.67;100.00
51287;BME280;37364;46.974;18.916;2023-06-14T04:34:15;153871.94;;;13.97;100.00
51287;BME280;37364;46.974;18.916;2023-06-14T04:36:53;153916.09;;;14.15;100.00
51287;BME280;37364;46.974;18.916;2023-06-14T04:39:31;153955.03;;;14.30;100.00
51287;BME280;37364;46.974;18.916;2023-06-14T04:42:12;154006.97;;;14.51;100.00
51287;BME280;37364;46.974;18.916;2023-06-14T04:44:48;154049.84;;;14.68;100.00
51287;BME280;37364;46.974;18.916;2023-06-14T04:47:20;154103.09;;;14.89;100.00
51287;BME280;37364;46.974;18.916;2023-06-14T04:49:52;154179.69;;;15.19;100.00
51287;BME280;37364;46.974;18.916;2023-06-14T04:52:24;154174.50;;;15.17;100.00
51287;BME280;37364;46.974;18.916;2023-06-14T04:55:01;154221.28;;;15.35;100.00
51287;BME280;37364;46.974;18.916;2023-06-14T04:57:42;154264.13;;;15.52;100.00
51287;BME280;37364;46.974;18.916;2023-06-14T05:00:24;154321.38;;;15.75;100.00
51287;BME280;37364;46.974;18.916;2023-06-14T05:02:59;154351.25;;;15.87;100.00
51287;BME280;37364;46.974;18.916;2023-06-14T05:05:31;154375.94;;;15.96;100.00
51287;BME280;37364;46.974;18.916;2023-06-14T05:08:01;154417.50;;;16.13;100.00
51287;BME280;37364;46.974;18.916;2023-06-14T05:10:32;154429.25;;;16.17;100.00
51287;BME280;37364;46.974;18.916;2023-06-14T05:13:08;154461.72;;;16.30;100.00
51287;BME280;37364;46.974;18.916;2023-06-14T05:15:46;154517.59;;;16.52;100.00
51287;BME280;37364;46.974;18.916;2023-06-14T05:18:20;154548.81;;;16.65;100.00
51287;BME280;37364;46.974;18.916;2023-06-14T05:20:52;154613.88;;;16.90;100.00
51287;BME280;37364;46.974;18.916;2023-06-14T05:23:25;154616.44;;;16.91;100.00
51287;BME280;37364;46.974;18.916;2023-06-14T05:25:55;154606.06;;;16.87;100.00
51287;BME280;37364;46.974;18.916;2023-06-14T05:28:29;154654.19;;;17.06;100.00
51287;BME280;37364;46.974;18.916;2023-06-14T05:31:02;154707.50;;;17.27;100.00
51287;BME280;37364;46.974;18.916;2023-06-14T05:33:33;154775.13;;;17.54;100.00
51287;BME280;37364;46.974;18.916;2023-06-14T05:36:06;154874.03;;;17.93;100.00
51287;BME280;37364;46.974;18.916;2023-06-14T05:38:38;154850.63;;;17.84;100.00
51287;BME280;37364;46.974;18.916;2023-06-14T05:41:13;154923.50;;;18.12;100.00
51287;BME280;37364;46.974;18.916;2023-06-14T05:43:46;154979.44;;;18.34;100.00
51287;BME280;37364;46.974;18.916;2023-06-14T05:46:19;155070.59;;;18.70;100.00
51287;BME280;37364;46.974;18.916;2023-06-14T05:48:53;155075.78;;;18.72;100.00
51287;BME280;37364;46.974;18.916;2023-06-14T05:51:24;155133.09;;;18.95;100.00
51287;BME280;37364;46.974;18.916;2023-06-14T05:53:54;155168.25;;;19.09;100.00
51287;BME280;37364;46.974;18.916;2023-06-14T05:56:25;155209.94;;;19.25;100.00
51287;BME280;37364;46.974;18.916;2023-06-14T05:58:56;155228.16;;;19.32;100.00
51287;BME280;37364;46.974;18.916;2023-06-14T06:01:29;155269.84;;;19.49;100.00
51287;BME280;37364;46.974;18.916;2023-06-14T06:04:01;155265.94;;;19.47;100.00
51287;BME280;37364;46.974;18.916;2023-06-14T06:06:31;155375.41;;;19.90;100.00
51287;BME280;37364;46.974;18.916;2023-06-14T06:09:02;155381.91;;;19.93;100.00
51287;BME280;37364;46.974;18.916;2023-06-14T06:11:34;155391.03;;;19.97;100.00
51287;BME280;37364;46.974;18.916;2023-06-14T06:14:19;155461.38;;;20.24;100.00
51287;BME280;37364;46.974;18.916;2023-06-14T06:16:59;155452.25;;;20.21;100.00
51287;BME280;37364;46.974;18.916;2023-06-14T06:19:29;155590.44;;;20.75;100.00
51287;BME280;37364;46.974;18.916;2023-06-14T06:21:59;155677.81;;;21.09;100.00
51287;BME280;37364;46.974;18.916;2023-06-14T06:24:32;155672.59;;;21.07;100.00
51287;BME280;37364;46.974;18.916;2023-06-14T06:27:02;155788.66;;;21.53;100.00
51287;BME280;37364;46.974;18.916;2023-06-14T06:29:34;155759.91;;;21.42;100.00
51287;BME280;37364;46.974;18.916;2023-06-14T06:32:11;155720.81;;;21.26;100.00
51287;BME280;37364;46.974;18.916;2023-06-14T06:34:41;155540.88;;;20.55;100.00
51287;BME280;37364;46.974;18.916;2023-06-14T06:37:12;155559.19;;;20.63;100.00
51287;BME280;37364;46.974;18.916;2023-06-14T06:39:44;155595.66;;;20.77;100.00
51287;BME280;37364;46.974;18.916;2023-06-14T06:42:15;155505.69;;;20.42;100.00
51287;BME280;37364;46.974;18.916;2023-06-14T06:44:49;155450.97;;;20.20;100.00
51287;BME280;37364;46.974;18.916;2023-06-14T06:47:22;155380.63;;;19.92;100.00
51287;BME280;37364;46.974;18.916;2023-06-14T06:49:52;155344.16;;;19.78;100.00
51287;BME280;37364;46.974;18.916;2023-06-14T06:52:22;155535.66;;;20.53;100.00
51287;BME280;37364;46.974;18.916;2023-06-14T06:54:54;155539.59;;;20.55;100.00
51287;BME280;37364;46.974;18.916;2023-06-14T06:57:25;155624.34;;;20.88;100.00
51287;BME280;37364;46.974;18.916;2023-06-14T06:59:57;155767.81;;;21.45;100.00
51287;BME280;37364;46.974;18.916;2023-06-14T07:02:30;155879.94;;;21.89;100.00
51287;BME280;37364;46.974;18.916;2023-06-14T07:05:00;155921.72;;;22.05;100.00
51287;BME280;37364;46.974;18.916;2023-06-14T07:07:32;155941.28;;;22.13;100.00
51287;BME280;37364;46.974;18.916;2023-06-14T07:10:02;155962.16;;;22.21;100.00
51287;BME280;37364;46.974;18.916;2023-06-14T07:12:36;155983.06;;;22.29;100.00
51287;BME280;37364;46.974;18.916;2023-06-14T07:15:08;155928.22;;;22.08;100.00
51287;BME280;37364;46.974;18.916;2023-06-14T07:17:44;156069.16;;;22.63;100.00
51287;BME280;37364;46.974;18.916;2023-06-14T07:20:14;156099.16;;;22.75;96.51
51287;BME280;37364;46.974;18.916;2023-06-14T07:22:49;156204.94;;;23.17;98.50
51287;BME280;37364;46.974;18.916;2023-06-14T07:25:19;156305.47;;;23.56;93.22
51287;BME280;37364;46.974;18.916;2023-06-14T07:27:50;156325.06;;;23.64;92.68
51287;BME280;37364;46.974;18.916;2023-06-14T07:30:21;156343.31;;;23.71;93.43
51287;BME280;37364;46.974;18.916;2023-06-14T07:32:59;156412.56;;;23.98;91.41
51287;BME280;37364;46.974;18.916;2023-06-14T07:35:32;156364.25;;;23.79;90.30
51287;BME280;37364;46.974;18.916;2023-06-14T07:38:04;156412.56;;;23.98;90.60
51287;BME280;37364;46.974;18.916;2023-06-14T07:40:36;156428.25;;;24.04;94.74
51287;BME280;37364;46.974;18.916;2023-06-14T07:43:06;156393.00;;;23.91;91.03
51287;BME280;37364;46.974;18.916;2023-06-14T07:45:37;156530.16;;;24.44;88.76
51287;BME280;37364;46.974;18.916;2023-06-14T07:48:20;156613.75;;;24.77;77.93
51287;BME280;37364;46.974;18.916;2023-06-14T07:50:55;156522.28;;;24.41;80.85
51287;BME280;37364;46.974;18.916;2023-06-14T07:53:25;156404.72;;;23.95;78.68
51287;BME280;37364;46.974;18.916;2023-06-14T07:55:57;156313.28;;;23.59;74.02
51287;BME280;37364;46.974;18.916;2023-06-14T07:58:28;156404.72;;;23.95;82.44
51287;BME280;37364;46.974;18.916;2023-06-14T08:01:00;156233.66;;;23.28;81.62
51287;BME280;37364;46.974;18.916;2023-06-14T08:03:38;156023.50;;;22.45;85.56
51287;BME280;37364;46.974;18.916;2023-06-14T08:06:14;156129.19;;;22.87;93.16
51287;BME280;37364;46.974;18.916;2023-06-14T08:08:45;156204.94;;;23.17;86.64
51287;BME280;37364;46.974;18.916;2023-06-14T08:11:17;156285.91;;;23.48;89.72
51287;BME280;37364;46.974;18.916;2023-06-14T08:13:51;156374.69;;;23.83;89.81
51287;BME280;37364;46.974;18.916;2023-06-14T08:16:23;156376.03;;;23.84;82.46
51287;BME280;37364;46.974;18.916;2023-06-14T08:19:01;156342.03;;;23.71;78.24
51287;BME280;37364;46.974;18.916;2023-06-14T08:21:31;156393.00;;;23.91;74.39
51287;BME280;37364;46.974;18.916;2023-06-14T08:24:08;156570.69;;;24.60;77.58
51287;BME280;37364;46.974;18.916;2023-06-14T08:26:41;156387.75;;;23.88;78.99
51287;BME280;37364;46.974;18.916;2023-06-14T08:29:11;156321.13;;;23.62;74.91
51287;BME280;37364;46.974;18.916;2023-06-14T08:31:48;156153.97;;;22.97;75.52
51287;BME280;37364;46.974;18.916;2023-06-14T08:34:25;156147.47;;;22.94;80.05
51287;BME280;37364;46.974;18.916;2023-06-14T08:36:58;156104.38;;;22.77;86.08
51287;BME280;37364;46.974;18.916;2023-06-14T08:39:29;156093.94;;;22.73;82.73
51287;BME280;37364;46.974;18.916;2023-06-14T08:42:01;156214.06;;;23.20;73.67
51287;BME280;37364;46.974;18.916;2023-06-14T08:44:43;156189.28;;;23.10;75.67
51287;BME280;37364;46.974;18.916;2023-06-14T08:47:13;156165.75;;;23.01;71.77
51287;BME280;37364;46.974;18.916;2023-06-14T08:49:54;156090.03;;;22.71;71.68
51287;BME280;37364;46.974;18.916;2023-06-14T08:52:27;156143.53;;;22.93;71.97
51287;BME280;37364;46.974;18.916;2023-06-14T08:55:00;156107.03;;;22.78;67.46
51287;BME280;37364;46.974;18.916;2023-06-14T08:57:33;156080.94;;;22.68;63.08
51287;BME280;37364;46.974;18.916;2023-06-14T09:00:06;156118.75;;;22.83;60.16
51287;BME280;37364;46.974;18.916;2023-06-14T09:02:39;156202.34;;;23.16;57.05
51287;BME280;37364;46.974;18.916;2023-06-14T09:05:13;156173.63;;;23.04;58.66
51287;BME280;37364;46.974;18.916;2023-06-14T09:07:45;156266.31;;;23.41;62.25
51287;BME280;37364;46.974;18.916;2023-06-14T09:10:21;156289.78;;;23.50;57.90
51287;BME280;37364;46.974;18.916;2023-06-14T09:12:55;156313.28;;;23.59;52.52
51287;BME280;37364;46.974;18.916;2023-06-14T09:15:32;156420.44;;;24.01;54.15
51287;BME280;37364;46.974;18.916;2023-06-14T09:18:08;156633.38;;;24.85;49.86
51287;BME280;37364;46.974;18.916;2023-06-14T09:20:43;156728.78;;;25.22;51.77
51287;BME280;37364;46.974;18.916;2023-06-14T09:23:22;156652.97;;;24.93;49.22
51287;BME280;37364;46.974;18.916;2023-06-14T09:25:54;156771.94;;;25.39;47.94
51287;BME280;37364;46.974;18.916;2023-06-14T09:28:28;156629.44;;;24.83;47.28
51287;BME280;37364;46.974;18.916;2023-06-14T09:31:00;156595.50;;;24.70;50.32
51287;BME280;37364;46.974;18.916;2023-06-14T09:33:31;156361.66;;;23.78;45.57
51287;BME280;37364;46.974;18.916;2023-06-14T09:36:13;156399.50;;;23.93;52.02
51287;BME280;37364;46.974;18.916;2023-06-14T09:38:56;156308.06;;;23.57;50.14
51287;BME280;37364;46.974;18.916;2023-06-14T09:41:32;156398.22;;;23.93;50.78
51287;BME280;37364;46.974;18.916;2023-06-14T09:44:04;156492.25;;;24.30;48.08
51287;BME280;37364;46.974;18.916;2023-06-14T09:46:42;156587.66;;;24.67;50.35
51287;BME280;37364;46.974;18.916;2023-06-14T09:49:13;156752.31;;;25.32;48.93
51287;BME280;37364;46.974;18.916;2023-06-14T09:51:50;156462.22;;;24.18;48.27
51287;BME280;37364;46.974;18.916;2023-06-14T09:54:22;156378.63;;;23.85;47.80
51287;BME280;37364;46.974;18.916;2023-06-14T09:56:53;156340.72;;;23.70;55.54
51287;BME280;37364;46.974;18.916;2023-06-14T09:59:32;156112.25;;;22.80;59.78
51287;BME280;37364;46.974;18.916;2023-06-14T10:02:09;156117.47;;;22.82;58.76
51287;BME280;37364;46.974;18.916;2023-06-14T10:04:46;155958.22;;;22.20;59.32
51287;BME280;37364;46.974;18.916;2023-06-14T10:07:26;156091.38;;;22.72;59.79
51287;BME280;37364;46.974;18.916;2023-06-14T10:10:00;156044.38;;;22.54;60.00
51287;BME280;37364;46.974;18.916;2023-06-14T10:12:35;155997.41;;;22.35;64.33
51287;BME280;37364;46.974;18.916;2023-06-14T10:15:12;156097.88;;;22.75;62.70
51287;BME280;37364;46.974;18.916;2023-06-14T10:17:51;156065.25;;;22.62;60.32
51287;BME280;37364;46.974;18.916;2023-06-14T10:20:33;156204.94;;;23.17;61.62
51287;BME280;37364;46.974;18.916;2023-06-14T10:23:19;156144.84;;;22.93;59.31
51287;BME280;37364;46.974;18.916;2023-06-14T10:25:56;156167.06;;;23.02;57.82
51287;BME280;37364;46.974;18.916;2023-06-14T10:28:30;156093.94;;;22.73;56.75
51287;BME280;37364;46.974;18.916;2023-06-14T10:31:06;156216.72;;;23.21;58.27
51287;BME280;37364;46.974;18.916;2023-06-14T10:33:41;156258.47;;;23.38;61.17
51287;BME280;37364;46.974;18.916;2023-06-14T10:36:30;156493.53;;;24.30;52.50
51287;BME280;37364;46.974;18.916;2023-06-14T10:39:12;156564.13;;;24.58;51.25
51287;BME280;37364;46.974;18.916;2023-06-14T10:41:52;156514.44;;;24.38;49.18
51287;BME280;37364;46.974;18.916;2023-06-14T10:44:49;156628.13;;;24.83;50.20
51287;BME280;37364;46.974;18.916;2023-06-14T10:47:31;156671.28;;;25.00;48.39
51287;BME280;37364;46.974;18.916;2023-06-14T10:50:07;156799.41;;;25.50;53.20
51287;BME280;37364;46.974;18.916;2023-06-14T10:52:39;156820.31;;;25.58;51.00
51287;BME280;37364;46.974;18.916;2023-06-14T10:55:16;156947.13;;;26.08;52.48
51287;BME280;37364;46.974;18.916;2023-06-14T10:57:51;156996.81;;;26.28;49.31
51287;BME280;37364;46.974;18.916;2023-06-14T11:00:24;156991.59;;;26.26;48.16
51287;BME280;37364;46.974;18.916;2023-06-14T11:03:25;156905.31;;;25.92;47.88
51287;BME280;37364;46.974;18.916;2023-06-14T11:06:13;157013.81;;;26.34;46.48
51287;BME280;37364;46.974;18.916;2023-06-14T11:09:13;157190.44;;;27.03;51.75
51287;BME280;37364;46.974;18.916;2023-06-14T11:11:54;156862.13;;;25.75;45.75
51287;BME280;37364;46.974;18.916;2023-06-14T11:14:29;156847.72;;;25.69;46.64
51287;BME280;37364;46.974;18.916;2023-06-14T11:17:00;156676.50;;;25.02;46.10
51287;BME280;37364;46.974;18.916;2023-06-14T11:19:30;156734.03;;;25.24;48.11
51287;BME280;37364;46.974;18.916;2023-06-14T11:22:02;156686.94;;;25.06;46.23
51287;BME280;37364;46.974;18.916;2023-06-14T11:24:35;156680.44;;;25.03;45.60
51287;BME280;37364;46.974;18.916;2023-06-14T11:27:08;156519.66;;;24.40;46.58
51287;BME280;37364;46.974;18.916;2023-06-14T11:29:38;156477.88;;;24.24;45.52
51287;BME280;37364;46.974;18.916;2023-06-14T11:32:10;156403.44;;;23.95;46.35
51287;BME280;37364;46.974;18.916;2023-06-14T11:34:41;156459.56;;;24.17;50.53
51287;BME280;37364;46.974;18.916;2023-06-14T11:37:11;156348.53;;;23.73;47.96
51287;BME280;37364;46.974;18.916;2023-06-14T11:39:45;156257.16;;;23.37;49.86
51287;BME280;37364;46.974;18.916;2023-06-14T11:42:19;156155.28;;;22.97;47.57
51287;BME280;37364;46.974;18.916;2023-06-14T11:44:50;156251.94;;;23.35;50.52
51287;BME280;37364;46.974;18.916;2023-06-14T11:47:37;156349.81;;;23.74;50.03
51287;BME280;37364;46.974;18.916;2023-06-14T11:50:08;156430.88;;;24.05;50.61
51287;BME280;37364;46.974;18.916;2023-06-14T11:52:44;156484.38;;;24.26;50.89
51287;BME280;37364;46.974;18.916;2023-06-14T11:55:15;156456.97;;;24.16;48.30
51287;BME280;37364;46.974;18.916;2023-06-14T11:57:49;156528.81;;;24.44;47.09
51287;BME280;37364;46.974;18.916;2023-06-14T12:00:22;156646.44;;;24.90;47.51
51287;BME280;37364;46.974;18.916;2023-06-14T12:02:56;156854.25;;;25.72;51.50
51287;BME280;37364;46.974;18.916;2023-06-14T12:05:28;156900.03;;;25.90;47.38
51287;BME280;37364;46.974;18.916;2023-06-14T12:08:02;156813.75;;;25.56;47.29
51287;BME280;37364;46.974;18.916;2023-06-14T12:10:40;157101.50;;;26.69;47.61
51287;BME280;37364;46.974;18.916;2023-06-14T12:13:17;157144.66;;;26.86;45.55
51287;BME280;37364;46.974;18.916;2023-06-14T12:15:54;157066.13;;;26.55;46.58
51287;BME280;37364;46.974;18.916;2023-06-14T12:18:32;156884.38;;;25.83;43.85
51287;BME280;37364;46.974;18.916;2023-06-14T12:21:04;157072.66;;;26.57;47.78
51287;BME280;37364;46.974;18.916;2023-06-14T12:23:44;157081.88;;;26.61;47.83
51287;BME280;37364;46.974;18.916;2023-06-14T12:26:16;156991.59;;;26.26;43.82
51287;BME280;37364;46.974;18.916;2023-06-14T12:28:49;156909.19;;;25.93;46.21
51287;BME280;37364;46.974;18.916;2023-06-14T12:31:19;156796.78;;;25.49;44.68
51287;BME280;37364;46.974;18.916;2023-06-14T12:33:52;156765.41;;;25.37;44.81
51287;BME280;37364;46.974;18.916;2023-06-14T12:36:22;156795.47;;;25.49;45.33
51287;BME280;37364;46.974;18.916;2023-06-14T12:38:52;156756.25;;;25.33;48.37
51287;BME280;37364;46.974;18.916;2023-06-14T12:41:23;156766.72;;;25.37;45.60
51287;BME280;37364;46.974;18.916;2023-06-14T12:43:56;156754.97;;;25.33;45.38
51287;BME280;37364;46.974;18.916;2023-06-14T12:46:31;156728.78;;;25.22;45.65
51287;BME280;37364;46.974;18.916;2023-06-14T12:49:02;156757.56;;;25.34;45.42
51287;BME280;37364;46.974;18.916;2023-06-14T12:51:32;156713.06;;;25.16;47.59
51287;BME280;37364;46.974;18.916;2023-06-14T12:54:05;156898.69;;;25.89;45.58
51287;BME280;37364;46.974;18.916;2023-06-14T12:56:35;156924.94;;;25.99;48.58
51287;BME280;37364;46.974;18.916;2023-06-14T12:59:09;156941.91;;;26.06;47.83
51287;BME280;37364;46.974;18.916;2023-06-14T13:01:39;156818.97;;;25.58;47.95
51287;BME280;37364;46.974;18.916;2023-06-14T13:04:09;156526.22;;;24.43;46.93
51287;BME280;37364;46.974;18.916;2023-06-14T13:06:44;156615.09;;;24.78;47.64
51287;BME280;37364;46.974;18.916;2023-06-14T13:09:17;156598.09;;;24.71;47.56
51287;BME280;37364;46.974;18.916;2023-06-14T13:11:47;156521.00;;;24.41;48.76